Time;durP1;ratioP1;P1;durP2;ratioP2;P2;SDS_P1;SDS_P2;PMS_P1;PMS_P2;Temp;Humidity;BMP_temperature;BMP_pressure;BME280_temperature;BME280_humidity;BME280_pressure;Samples;Min_cycle;Max_cycle;Signal;HPM_P1;HPM_P2
2021/09/09 00:00:13;;;;;;;7.72;6.43;;;;;;;20.47;56.07;96870.97;4976027;28;20081;-77
2021/09/09 00:02:38;;;;;;;7.13;5.20;;;;;;;20.47;56.04;96870.97;4967885;28;20473;-77
2021/09/09 00:05:05;;;;;;;7.10;5.88;;;;;;;20.43;56.53;96867.41;4974813;28;20039;-77
2021/09/09 00:07:30;;;;;;;7.43;5.85;;;;;;;20.48;56.13;96869.88;4972842;28;20034;-77
2021/09/09 00:09:56;;;;;;;8.45;6.15;;;;;;;20.53;56.10;96868.94;4975245;28;20049;-77
2021/09/09 00:12:22;;;;;;;7.25;6.47;;;;;;;20.51;56.17;96868.47;4973026;28;20072;-77
2021/09/09 00:14:47;;;;;;;7.65;5.60;;;;;;;20.51;56.00;96871.09;4957340;28;20478;-77
2021/09/09 00:17:12;;;;;;;8.32;5.72;;;;;;;20.53;56.08;96867.06;4974089;28;20038;-77
2021/09/09 00:19:38;;;;;;;7.03;6.32;;;;;;;20.50;56.11;96870.34;4972938;28;20027;-77
2021/09/09 00:22:03;;;;;;;7.03;5.68;;;;;;;20.47;56.32;96872.84;4973450;28;20054;-76
2021/09/09 00:24:28;;;;;;;6.57;5.65;;;;;;;20.36;56.33;96857.31;4941098;28;20049;-77
2021/09/09 00:26:54;;;;;;;8.07;6.15;;;;;;;20.32;57.09;96860.91;4956527;28;20101;-77
2021/09/09 00:29:19;;;;;;;7.85;6.30;;;;;;;20.28;57.14;96855.47;4972335;28;20116;-77
2021/09/09 00:31:44;;;;;;;6.97;5.57;;;;;;;20.25;57.09;96856.09;4962286;28;20375;-77
2021/09/09 00:34:10;;;;;;;6.90;6.10;;;;;;;20.25;56.98;96861.38;4937487;29;20043;-77
2021/09/09 00:36:35;;;;;;;8.25;6.13;;;;;;;20.24;56.98;96854.56;4905768;29;20023;-77
2021/09/09 00:39:00;;;;;;;6.25;5.38;;;;;;;20.27;57.14;96856.56;4933687;28;20081;-77
2021/09/09 00:41:31;;;;;;;8.13;5.82;;;;;;;20.13;57.56;96851.44;4956581;28;20066;-76
2021/09/09 00:43:57;;;;;;;8.27;6.18;;;;;;;20.23;57.46;96854.88;4973211;28;20034;-76
2021/09/09 00:46:23;;;;;;;8.52;6.00;;;;;;;20.24;57.50;96848.47;4988383;28;20034;-77
2021/09/09 00:48:49;;;;;;;7.38;5.80;;;;;;;20.23;57.60;96847.69;4956566;28;20318;-77
2021/09/09 00:51:14;;;;;;;7.60;6.13;;;;;;;20.18;57.26;96846.00;4956751;28;20517;-77
2021/09/09 00:53:42;;;;;;;7.65;5.75;;;;;;;20.18;57.47;96846.00;4956618;28;20039;-77
2021/09/09 00:56:08;;;;;;;7.35;6.10;;;;;;;20.19;57.46;96838.88;4940377;28;20027;-77
2021/09/09 00:58:35;;;;;;;7.30;5.78;;;;;;;20.14;57.24;96841.66;4939979;28;20041;-77
2021/09/09 01:01:01;;;;;;;6.00;5.40;;;;;;;20.17;57.34;96841.03;4956459;28;20031;-77
2021/09/09 01:03:26;;;;;;;7.22;5.68;;;;;;;20.17;57.35;96838.41;4987412;23;20070;-78
2021/09/09 01:05:51;;;;;;;7.63;6.15;;;;;;;20.17;57.23;96838.41;4993137;28;20044;-78
2021/09/09 01:08:17;;;;;;;6.57;5.65;;;;;;;20.16;57.28;96840.25;4959814;28;20057;-78
2021/09/09 01:10:42;;;;;;;6.75;5.35;;;;;;;20.15;57.41;96837.91;4975961;28;20042;-78
2021/09/09 01:13:11;;;;;;;7.55;5.47;;;;;;;20.01;57.54;96846.84;4992407;28;20030;-78
2021/09/09 01:15:38;;;;;;;8.23;6.40;;;;;;;20.11;57.70;96839.66;4975538;28;20053;-78
2021/09/09 01:18:11;;;;;;;6.80;6.00;;;;;;;19.90;58.04;96840.31;4975555;28;20054;-78
2021/09/09 01:20:36;;;;;;;6.47;5.38;;;;;;;20.01;58.02;96838.09;4959583;28;20034;-78
2021/09/09 01:23:02;;;;;;;7.85;5.65;;;;;;;19.99;57.99;96837.66;4975498;28;20038;-78
2021/09/09 01:25:27;;;;;;;7.57;6.65;;;;;;;19.98;58.04;96844.81;4991566;28;20125;-78
2021/09/09 01:27:53;;;;;;;8.13;6.63;;;;;;;19.96;58.10;96839.06;4975351;28;20065;-78
2021/09/09 01:30:18;;;;;;;9.38;6.80;;;;;;;19.93;57.99;96838.88;4975324;28;20492;-78
2021/09/09 01:32:44;;;;;;;8.23;7.35;;;;;;;19.90;58.22;96835.03;4955907;28;20098;-78
2021/09/09 01:35:09;;;;;;;7.00;6.07;;;;;;;19.88;58.02;96839.84;4971902;28;20069;-78
2021/09/09 01:37:34;;;;;;;8.95;7.10;;;;;;;19.83;58.42;96834.72;4939932;28;20023;-78
2021/09/09 01:40:02;;;;;;;8.32;6.65;;;;;;;19.81;58.42;96831.63;4972444;28;20045;-78
2021/09/09 01:42:28;;;;;;;7.57;6.25;;;;;;;19.76;58.51;96831.78;4956366;28;20034;-78
2021/09/09 01:44:53;;;;;;;6.60;5.90;;;;;;;19.82;58.42;96833.16;4971645;28;20049;-78
2021/09/09 01:47:19;;;;;;;7.72;6.13;;;;;;;19.79;58.45;96831.13;4969201;28;20026;-78
2021/09/09 01:49:44;;;;;;;6.35;5.72;;;;;;;19.77;58.23;96820.88;4991225;28;20027;-78
2021/09/09 01:52:10;;;;;;;7.20;6.00;;;;;;;19.73;58.17;96816.53;4991482;28;20049;-78
2021/09/09 01:54:35;;;;;;;6.57;5.85;;;;;;;19.78;58.09;96816.41;4960206;28;20441;-78
2021/09/09 01:57:01;;;;;;;7.65;6.15;;;;;;;19.79;58.19;96825.84;4966944;28;20536;-78
2021/09/09 01:59:26;;;;;;;6.63;5.70;;;;;;;19.72;58.47;96815.72;4974935;28;20038;-78
2021/09/09 02:01:51;;;;;;;6.78;5.75;;;;;;;19.74;58.53;96816.25;4957679;28;20176;-78
2021/09/09 02:04:17;;;;;;;6.82;5.80;;;;;;;19.80;58.37;96832.69;4973171;28;20034;-78
2021/09/09 02:06:42;;;;;;;7.75;5.57;;;;;;;19.81;58.11;96828.97;4990157;28;20038;-78
2021/09/09 02:09:07;;;;;;;7.07;6.07;;;;;;;19.87;57.99;96835.63;4989483;28;20040;-78
2021/09/09 02:11:33;;;;;;;6.97;5.13;;;;;;;19.92;57.85;96826.78;4988778;28;20034;-78
2021/09/09 02:13:58;;;;;;;5.78;5.18;;;;;;;19.89;57.76;96820.25;4976825;28;20031;-78
2021/09/09 02:16:24;;;;;;;7.13;5.80;;;;;;;19.90;58.04;96824.44;4970455;28;20069;-78
2021/09/09 02:18:49;;;;;;;8.20;5.97;;;;;;;19.85;58.32;96827.25;4953894;28;20274;-78
2021/09/09 02:21:15;;;;;;;6.65;5.95;;;;;;;19.69;58.44;96818.22;4953958;28;20035;-78
2021/09/09 02:23:40;;;;;;;8.45;5.63;;;;;;;19.64;58.97;96821.81;4953497;28;20030;-78
2021/09/09 02:26:07;;;;;;;6.15;5.32;;;;;;;19.55;59.05;96821.81;4953796;28;20031;-78
2021/09/09 02:28:32;;;;;;;6.70;5.80;;;;;;;19.59;59.33;96829.91;4937320;28;20050;-78
2021/09/09 02:30:58;;;;;;;6.28;5.57;;;;;;;19.52;59.57;96824.28;4937456;28;20086;-78
2021/09/09 02:33:24;;;;;;;6.45;5.57;;;;;;;19.52;59.45;96822.44;4953631;28;20042;-78
2021/09/09 02:35:53;;;;;;;7.53;5.97;;;;;;;19.50;59.61;96821.97;4937824;28;20030;-78
2021/09/09 02:38:18;;;;;;;6.82;5.72;;;;;;;19.52;59.57;96827.72;4970633;28;20038;-78
2021/09/09 02:40:44;;;;;;;6.50;5.82;;;;;;;19.44;59.71;96818.69;4921639;28;20035;-78
2021/09/09 02:43:09;;;;;;;7.80;6.97;;;;;;;19.40;59.43;96817.78;4953336;28;20038;-78
2021/09/09 02:45:35;;;;;;;6.50;5.57;;;;;;;19.42;59.66;96817.47;4938124;28;20054;-78
2021/09/09 02:48:02;;;;;;;7.30;5.40;;;;;;;19.47;59.73;96822.59;4973913;28;20721;-78
2021/09/09 02:50:28;;;;;;;7.10;5.43;;;;;;;19.50;59.45;96827.25;4970048;28;20035;-78
2021/09/09 02:52:55;;;;;;;7.53;5.38;;;;;;;19.46;59.11;96824.44;4954136;28;20363;-78
2021/09/09 02:55:21;;;;;;;6.53;5.82;;;;;;;19.49;59.20;96815.13;4938250;28;20032;-78
2021/09/09 02:57:46;;;;;;;6.53;5.40;;;;;;;19.39;59.42;96816.22;4970443;28;20111;-78
2021/09/09 03:00:12;;;;;;;6.60;5.30;;;;;;;19.38;59.44;96819.16;4970745;28;20038;-77
2021/09/09 03:02:38;;;;;;;6.65;5.40;;;;;;;19.36;59.51;96816.81;4970348;28;20093;-77
2021/09/09 03:05:03;;;;;;;6.45;5.15;;;;;;;19.36;59.86;96816.06;4970019;28;20105;-78
2021/09/09 03:07:29;;;;;;;7.03;5.53;;;;;;;19.34;59.71;96805.81;4952588;28;20038;-77
2021/09/09 03:09:54;;;;;;;7.18;5.60;;;;;;;19.33;59.96;96806.09;4970381;28;20059;-78
2021/09/09 03:12:19;;;;;;;7.88;5.57;;;;;;;19.32;59.80;96809.84;4938804;28;20038;-78
2021/09/09 03:14:45;;;;;;;6.72;5.72;;;;;;;19.27;60.00;96806.25;4949897;29;20038;-78
2021/09/09 03:17:11;;;;;;;6.57;5.15;;;;;;;19.25;60.17;96810.31;4934746;29;20452;-77
2021/09/09 03:19:40;;;;;;;7.57;5.45;;;;;;;19.09;60.44;96797.56;4982833;28;20474;-78
2021/09/09 03:22:05;;;;;;;7.53;5.90;;;;;;;19.17;60.34;96805.78;4952298;28;20033;-77
2021/09/09 03:24:32;;;;;;;6.05;5.32;;;;;;;19.20;60.46;96807.81;4961083;28;20034;-77
2021/09/09 03:26:57;;;;;;;7.75;5.90;;;;;;;19.18;60.43;96807.34;4977013;28;20329;-77
2021/09/09 03:29:22;;;;;;;7.30;5.50;;;;;;;19.13;60.59;96803.00;4994907;28;20034;-77
2021/09/09 03:31:48;;;;;;;8.05;5.55;;;;;;;19.17;60.65;96811.84;4937246;29;20098;-77
2021/09/09 03:34:13;;;;;;;6.35;5.70;;;;;;;19.22;60.63;96805.63;4937909;29;20035;-77
2021/09/09 03:36:38;;;;;;;7.78;6.05;;;;;;;19.17;60.31;96801.28;4952398;28;20478;-78
2021/09/09 03:39:04;;;;;;;8.23;6.72;;;;;;;19.22;60.37;96803.00;4973374;28;20541;-78
2021/09/09 03:41:29;;;;;;;7.43;5.72;;;;;;;19.20;60.34;96805.94;4957620;28;20347;-78
2021/09/09 03:43:57;;;;;;;8.77;5.95;;;;;;;19.23;60.31;96809.84;4973376;28;20038;-77
2021/09/09 03:46:22;;;;;;;6.63;5.88;;;;;;;19.23;60.47;96802.69;4989847;28;20034;-78
2021/09/09 03:48:47;;;;;;;6.50;5.80;;;;;;;19.20;60.53;96805.19;4973672;28;20049;-78
2021/09/09 03:51:13;;;;;;;7.07;5.70;;;;;;;19.22;60.68;96814.31;4956992;28;20386;-78
2021/09/09 03:53:38;;;;;;;6.43;5.78;;;;;;;19.18;60.45;96807.34;4957437;28;20030;-77
2021/09/09 03:56:04;;;;;;;6.05;5.45;;;;;;;19.24;60.49;96809.53;4973879;28;20441;-77
2021/09/09 03:58:29;;;;;;;6.22;5.63;;;;;;;19.26;60.27;96810.00;4957659;28;20026;-77
2021/09/09 04:00:55;;;;;;;7.60;5.65;;;;;;;19.25;60.23;96808.44;4973188;28;20038;-77
2021/09/09 04:03:20;;;;;;;7.32;6.60;;;;;;;19.31;60.20;96818.84;4973062;28;20057;-77
2021/09/09 04:05:45;;;;;;;7.03;5.93;;;;;;;19.30;60.42;96802.22;4973658;28;20258;-77
2021/09/09 04:08:11;;;;;;;6.22;5.50;;;;;;;19.31;60.46;96798.50;4989927;28;20389;-78
2021/09/09 04:10:36;;;;;;;8.70;6.78;;;;;;;19.32;60.18;96804.56;4972236;28;20503;-78
2021/09/09 04:13:02;;;;;;;7.97;6.03;;;;;;;19.31;59.97;96810.94;4972690;28;20045;-78
2021/09/09 04:15:27;;;;;;;7.18;6.15;;;;;;;19.27;59.99;96816.03;4973363;28;20037;-78
2021/09/09 04:17:53;;;;;;;7.57;6.13;;;;;;;19.22;59.93;96814.31;4940054;28;20039;-78
2021/09/09 04:20:18;;;;;;;8.30;6.32;;;;;;;19.13;60.43;96807.50;4941075;28;20126;-78
2021/09/09 04:22:44;;;;;;;7.22;6.40;;;;;;;19.07;60.42;96805.00;4972257;28;20041;-78
2021/09/09 04:25:10;;;;;;;7.28;6.00;;;;;;;19.08;60.53;96808.41;4985162;28;20031;-78
2021/09/09 04:27:35;;;;;;;7.30;5.78;;;;;;;19.08;60.41;96808.41;4937557;29;20023;-78
2021/09/09 04:30:01;;;;;;;7.25;5.60;;;;;;;19.09;60.68;96812.63;4920887;29;20043;-78
2021/09/09 04:32:27;;;;;;;7.72;6.10;;;;;;;19.08;60.63;96800.50;4948883;28;20394;-77
2021/09/09 04:34:52;;;;;;;8.68;5.55;;;;;;;19.13;60.64;96808.28;4960511;28;20549;-78
2021/09/09 04:37:18;;;;;;;6.90;5.70;;;;;;;19.13;60.89;96810.91;4956326;28;20869;-77
2021/09/09 04:39:43;;;;;;;7.70;6.28;;;;;;;19.06;60.87;96800.03;4972569;28;20045;-77
2021/09/09 04:42:08;;;;;;;7.45;5.93;;;;;;;19.07;60.98;96799.75;4972782;28;20062;-77
2021/09/09 04:44:34;;;;;;;7.05;5.75;;;;;;;19.13;60.74;96797.72;4956222;28;20069;-77
2021/09/09 04:46:59;;;;;;;6.85;5.72;;;;;;;19.13;60.57;96800.34;4936957;28;20396;-78
2021/09/09 04:49:25;;;;;;;7.07;5.80;;;;;;;19.19;60.52;96804.41;4972311;28;20397;-78
2021/09/09 04:51:50;;;;;;;7.40;6.10;;;;;;;19.21;60.31;96799.59;4955923;28;20079;-78
2021/09/09 04:54:16;;;;;;;6.60;5.22;;;;;;;19.23;60.31;96807.22;4955651;28;20090;-78
2021/09/09 04:56:41;;;;;;;7.10;5.28;;;;;;;19.26;60.23;96807.34;4973150;28;20042;-78
2021/09/09 04:59:06;;;;;;;6.38;5.47;;;;;;;19.30;60.14;96806.75;4955882;28;20085;-78
2021/09/09 05:01:32;;;;;;;5.50;5.00;;;;;;;19.32;60.06;96815.91;4938607;28;20541;-78
2021/09/09 05:03:57;;;;;;;6.45;5.50;;;;;;;19.31;60.03;96809.06;4959573;28;20054;-78
2021/09/09 05:06:23;;;;;;;6.57;5.80;;;;;;;19.36;59.80;96811.53;4935422;28;20098;-78
2021/09/09 05:08:48;;;;;;;7.53;5.45;;;;;;;19.38;59.85;96813.88;4954940;28;20105;-77
2021/09/09 05:11:16;;;;;;;6.35;5.03;;;;;;;19.37;59.81;96807.81;4972261;28;20477;-78
2021/09/09 05:13:42;;;;;;;5.95;5.32;;;;;;;19.44;59.68;96812.66;4954817;28;20674;-78
2021/09/09 05:16:07;;;;;;;7.28;5.70;;;;;;;19.42;59.63;96815.59;4938835;28;20041;-78
2021/09/09 05:18:33;;;;;;;8.07;5.03;;;;;;;19.37;59.60;96801.78;4955005;28;20101;-78
2021/09/09 05:20:58;;;;;;;6.97;5.75;;;;;;;19.41;59.84;96807.97;4938700;28;20039;-78
2021/09/09 05:23:23;;;;;;;7.72;5.63;;;;;;;19.47;60.20;96812.03;4954956;28;20041;-77
2021/09/09 05:25:51;;;;;;;5.85;5.28;;;;;;;19.38;60.18;96812.03;4972751;28;20121;-77
2021/09/09 05:28:17;;;;;;;6.30;5.00;;;;;;;19.54;59.91;96814.22;4988444;28;20030;-78
2021/09/09 05:30:42;;;;;;;8.45;4.97;;;;;;;19.63;59.83;96818.38;4936495;28;20065;-78
2021/09/09 05:33:08;;;;;;;6.78;5.65;;;;;;;19.77;59.28;96826.16;4935995;29;20046;-78
2021/09/09 05:35:34;;;;;;;6.70;5.40;;;;;;;19.82;59.17;96823.38;4936259;29;20038;-78
2021/09/09 05:38:00;;;;;;;7.13;5.70;;;;;;;19.89;59.11;96824.75;4920273;29;20027;-78
2021/09/09 05:40:25;;;;;;;6.43;5.18;;;;;;;19.96;59.38;96823.22;4936509;29;20042;-78
2021/09/09 05:42:50;;;;;;;6.70;4.95;;;;;;;20.04;59.15;96828.78;4935807;29;20039;-78
2021/09/09 05:45:16;;;;;;;6.53;5.05;;;;;;;20.02;59.07;96810.59;4952311;29;20035;-77
2021/09/09 05:47:41;;;;;;;6.70;5.55;;;;;;;20.30;58.84;96834.78;4930823;28;20113;-78
2021/09/09 05:50:10;;;;;;;6.75;5.20;;;;;;;20.33;57.83;96836.78;4972491;28;20034;-78
2021/09/09 05:52:36;;;;;;;5.95;5.22;;;;;;;20.55;57.60;96832.38;4987585;28;20070;-78
2021/09/09 05:55:01;;;;;;;8.48;5.93;;;;;;;20.66;57.17;96838.88;4970870;28;20454;-78
2021/09/09 05:57:26;;;;;;;5.68;5.07;;;;;;;20.79;57.02;96841.66;4955519;28;20026;-78
2021/09/09 05:59:52;;;;;;;6.70;5.63;;;;;;;20.86;57.45;96839.28;4955323;28;20251;-77
2021/09/09 06:02:19;;;;;;;6.45;4.82;;;;;;;21.00;56.71;96836.38;4972308;28;20038;-78
2021/09/09 06:04:45;;;;;;;8.32;4.80;;;;;;;21.05;56.30;96828.25;4970673;28;20038;-78
2021/09/09 06:07:11;;;;;;;6.63;5.78;;;;;;;21.21;56.47;96836.41;4955588;28;20367;-78
2021/09/09 06:09:38;;;;;;;5.95;5.40;;;;;;;21.29;55.96;96839.00;4970229;28;20060;-78
2021/09/09 06:12:03;;;;;;;6.57;4.90;;;;;;;21.53;54.57;96837.63;4971136;28;20394;-78
2021/09/09 06:14:29;;;;;;;6.60;5.28;;;;;;;21.70;54.78;96842.00;4954881;28;20031;-78
2021/09/09 06:16:55;;;;;;;6.13;4.60;;;;;;;21.83;53.97;96833.00;4955087;28;20509;-77
2021/09/09 06:19:20;;;;;;;5.18;4.68;;;;;;;22.01;53.51;96832.84;4971486;28;20038;-78
2021/09/09 06:21:46;;;;;;;5.45;4.50;;;;;;;22.08;53.15;96833.06;4938781;28;20126;-78
2021/09/09 06:24:11;;;;;;;5.18;4.70;;;;;;;22.25;53.93;96842.72;4987305;28;20097;-77
2021/09/09 06:26:37;;;;;;;5.47;4.40;;;;;;;22.33;52.93;96836.59;4971147;28;20109;-78
2021/09/09 06:29:02;;;;;;;5.22;4.47;;;;;;;22.48;53.42;96848.41;4954050;28;20045;-78
2021/09/09 06:31:28;;;;;;;5.50;4.70;;;;;;;22.52;52.96;96849.31;4962848;28;20427;-78
2021/09/09 06:33:53;;;;;;;5.25;4.75;;;;;;;22.55;53.17;96853.19;4950717;29;20536;-78
2021/09/09 06:36:19;;;;;;;7.05;5.20;;;;;;;22.43;53.97;96859.25;4951014;29;20395;-78
2021/09/09 06:38:45;;;;;;;6.03;5.00;;;;;;;22.47;54.68;96856.72;4934665;29;20053;-78
2021/09/09 06:41:10;;;;;;;5.38;4.65;;;;;;;22.47;53.90;96854.84;4934678;29;20043;-78
2021/09/09 06:43:38;;;;;;;5.30;4.80;;;;;;;22.51;53.58;96853.06;4950107;29;20119;-78
2021/09/09 06:46:03;;;;;;;6.45;5.00;;;;;;;22.56;53.93;96866.13;4918927;29;20027;-78
2021/09/09 06:48:29;;;;;;;6.47;5.15;;;;;;;22.58;53.36;96866.56;4931279;28;20034;-78
2021/09/09 06:50:56;;;;;;;5.45;4.90;;;;;;;22.68;52.91;96851.31;4953585;28;20074;-77
2021/09/09 06:53:22;;;;;;;5.47;4.97;;;;;;;22.86;53.08;96852.66;4934191;29;20070;-78
2021/09/09 06:55:47;;;;;;;5.25;4.75;;;;;;;22.99;52.08;96861.38;4935672;29;20561;-78
2021/09/09 06:58:13;;;;;;;5.78;5.18;;;;;;;23.13;52.69;96861.88;4949780;29;20031;-77
2021/09/09 07:00:38;;;;;;;6.57;4.90;;;;;;;23.20;52.02;96866.59;4934656;29;20027;-78
2021/09/09 07:03:03;;;;;;;7.22;5.20;;;;;;;23.42;51.81;96872.53;4933280;28;20034;-78
2021/09/09 07:05:29;;;;;;;5.40;4.68;;;;;;;23.47;51.55;96865.09;4950207;29;20342;-79
2021/09/09 07:07:55;;;;;;;5.88;5.30;;;;;;;23.64;50.95;96861.41;4939152;28;20039;-78
2021/09/09 07:10:21;;;;;;;5.90;4.75;;;;;;;23.72;50.86;96859.72;4953883;28;20038;-78
2021/09/09 07:12:46;;;;;;;4.88;4.38;;;;;;;23.91;49.90;96856.47;4937220;28;20049;-78
2021/09/09 07:15:11;;;;;;;4.72;4.22;;;;;;;24.09;49.58;96846.28;4969413;28;20035;-79
2021/09/09 07:17:37;;;;;;;5.32;4.63;;;;;;;24.35;49.29;96856.47;4929979;28;20023;-78
2021/09/09 07:20:04;;;;;;;5.35;4.70;;;;;;;24.46;49.40;96862.81;4955672;28;20019;-78
2021/09/09 07:22:29;;;;;;;5.85;4.85;;;;;;;24.72;48.91;96864.22;4954872;28;20031;-78
2021/09/09 07:24:54;;;;;;;6.57;5.35;;;;;;;24.86;48.84;96859.25;4946433;28;20039;-78
2021/09/09 07:27:21;;;;;;;6.07;4.60;;;;;;;25.08;48.81;96862.38;4936953;29;20044;-78
2021/09/09 07:29:46;;;;;;;4.97;4.40;;;;;;;25.36;47.42;96872.94;4931110;28;20558;-78
2021/09/09 07:32:11;;;;;;;6.55;4.57;;;;;;;25.33;47.37;96870.94;4954603;28;20126;-78
2021/09/09 07:34:37;;;;;;;5.55;5.00;;;;;;;25.08;48.38;96875.69;4959701;28;20089;-78
2021/09/09 07:37:02;;;;;;;6.25;4.70;;;;;;;25.39;47.72;96874.88;4965420;28;20037;-78
2021/09/09 07:39:28;;;;;;;5.75;4.70;;;;;;;25.36;48.16;96872.94;4972151;28;20038;-78
2021/09/09 07:41:53;;;;;;;7.05;4.43;;;;;;;25.40;47.61;96873.75;4954878;28;20489;-78
2021/09/09 07:44:19;;;;;;;6.22;5.25;;;;;;;25.26;47.86;96883.34;4972066;28;20092;-77
2021/09/09 07:46:45;;;;;;;5.32;4.78;;;;;;;25.60;48.17;96881.78;4940923;29;20035;-78
2021/09/09 07:49:15;;;;;;;5.43;4.88;;;;;;;25.65;48.08;96889.50;4935448;29;20060;-78
2021/09/09 07:51:40;;;;;;;6.70;4.95;;;;;;;25.43;47.95;96885.63;4951059;29;20035;-77
2021/09/09 07:54:05;;;;;;;7.60;4.78;;;;;;;25.98;47.60;96875.69;4950712;29;20042;-79
2021/09/09 07:56:31;;;;;;;5.53;4.93;;;;;;;26.04;47.98;96889.53;4919025;29;20041;-78
2021/09/09 07:58:56;;;;;;;6.68;5.50;;;;;;;26.27;46.94;96884.22;4951308;29;20043;-78
2021/09/09 08:01:22;;;;;;;6.00;4.68;;;;;;;26.28;46.66;96890.34;4919592;29;20411;-79
2021/09/09 08:03:47;;;;;;;5.68;5.18;;;;;;;26.12;46.61;96891.19;4951405;28;20074;-78
2021/09/09 08:06:14;;;;;;;5.90;5.25;;;;;;;26.14;47.23;96896.19;4937991;28;20045;-78
2021/09/09 08:08:39;;;;;;;7.75;5.00;;;;;;;26.13;48.47;96894.63;4960609;28;20054;-78
2021/09/09 08:11:05;;;;;;;5.85;4.85;;;;;;;26.24;48.31;96900.94;4948313;28;20134;-79
2021/09/09 08:13:30;;;;;;;5.72;5.07;;;;;;;26.34;47.84;96896.94;4968837;28;20056;-79
2021/09/09 08:15:56;;;;;;;5.55;4.88;;;;;;;26.23;47.47;96899.41;4967995;28;20415;-78
2021/09/09 08:18:21;;;;;;;5.90;5.40;;;;;;;26.14;48.13;96904.19;4955161;28;20026;-79
2021/09/09 08:20:47;;;;;;;5.78;5.20;;;;;;;26.20;48.09;96908.13;4934215;28;20349;-78
2021/09/09 08:23:12;;;;;;;6.90;4.90;;;;;;;26.48;48.04;96901.75;4978731;28;20027;-78
2021/09/09 08:25:37;;;;;;;5.05;4.65;;;;;;;26.46;47.67;96898.66;4943567;28;20142;-78
2021/09/09 08:28:03;;;;;;;6.10;5.50;;;;;;;26.38;48.73;96907.69;4946402;28;20489;-79
2021/09/09 08:30:31;;;;;;;7.75;4.72;;;;;;;26.25;49.18;96910.50;4951016;28;20126;-79
2021/09/09 08:32:56;;;;;;;6.03;5.43;;;;;;;26.27;48.82;96913.59;4920052;29;20055;-78
2021/09/09 08:35:23;;;;;;;5.68;5.15;;;;;;;26.44;48.70;96915.03;4929697;28;20062;-78
2021/09/09 08:37:49;;;;;;;5.63;5.13;;;;;;;26.56;48.54;96914.06;4939501;28;20034;-78
2021/09/09 08:40:14;;;;;;;6.55;5.00;;;;;;;26.48;48.71;96918.53;4955256;28;20441;-78
2021/09/09 08:42:42;;;;;;;6.63;6.10;;;;;;;26.24;49.22;96921.53;4956792;28;20039;-78
2021/09/09 08:45:08;;;;;;;5.63;5.05;;;;;;;26.26;49.80;96920.06;4955364;28;20031;-79
2021/09/09 08:47:37;;;;;;;7.43;5.55;;;;;;;26.23;49.07;96928.75;4938198;28;20477;-79
2021/09/09 08:50:03;;;;;;;7.45;5.68;;;;;;;26.39;49.28;96920.69;4971750;28;20061;-79
2021/09/09 08:52:28;;;;;;;6.00;5.40;;;;;;;26.02;50.07;96920.34;4954508;28;20477;-77
2021/09/09 08:54:53;;;;;;;6.50;5.57;;;;;;;26.36;49.86;96921.38;4953940;28;20085;-78
2021/09/09 08:57:22;;;;;;;5.63;4.80;;;;;;;26.51;49.72;96906.34;4920105;28;20035;-78
2021/09/09 08:59:50;;;;;;;6.50;5.18;;;;;;;26.99;48.24;96925.50;4970608;28;20046;-78
2021/09/09 09:02:17;;;;;;;5.25;4.72;;;;;;;27.26;47.85;96912.94;4954699;28;20034;-79
2021/09/09 09:05:00;;;;;;;7.35;5.47;;;;;;;27.16;48.11;96926.91;4953533;28;20046;-78
2021/09/09 09:07:31;;;;;;;5.75;5.25;;;;;;;27.19;47.42;96918.16;4954816;28;20501;-79
2021/09/09 09:10:02;;;;;;;5.93;5.28;;;;;;;27.33;47.56;96930.22;4952473;28;20043;-78
2021/09/09 09:12:42;;;;;;;5.28;4.78;;;;;;;26.82;48.64;96924.09;4970151;28;20050;-78
2021/09/09 09:15:19;;;;;;;6.32;5.00;;;;;;;27.00;48.21;96924.38;4938499;28;20331;-79
2021/09/09 09:17:56;;;;;;;7.65;5.90;;;;;;;26.69;49.35;96933.41;4935580;28;20042;-78
2021/09/09 09:20:22;;;;;;;6.88;5.43;;;;;;;26.67;49.51;96931.09;4987661;28;20096;-78
2021/09/09 09:22:47;;;;;;;6.40;5.72;;;;;;;26.68;49.30;96927.31;4989000;28;20049;-78
2021/09/09 09:25:14;;;;;;;8.38;6.05;;;;;;;26.58;50.17;96933.22;4939819;28;20023;-79
2021/09/09 09:27:46;;;;;;;7.07;6.28;;;;;;;26.52;49.33;96939.97;4954257;28;20027;-78
2021/09/09 09:30:13;;;;;;;6.53;5.32;;;;;;;26.49;50.14;96944.13;4953999;28;20045;-78
2021/09/09 09:32:49;;;;;;;7.00;6.05;;;;;;;26.31;50.20;96956.38;4934166;28;20106;-78
2021/09/09 09:35:17;;;;;;;6.53;5.43;;;;;;;26.47;50.24;96946.34;4951219;29;20070;-78
2021/09/09 09:37:50;;;;;;;10.25;5.80;;;;;;;26.26;51.17;96957.41;4950855;29;20035;-78
2021/09/09 09:40:29;;;;;;;5.85;5.35;;;;;;;26.13;51.64;96956.81;4966495;28;20027;-78
2021/09/09 09:43:02;;;;;;;7.97;5.70;;;;;;;26.01;51.54;96948.91;4942007;28;20093;-78
2021/09/09 09:45:27;;;;;;;8.00;5.40;;;;;;;26.49;50.32;96951.34;4970004;28;20504;-78
2021/09/09 09:47:53;;;;;;;6.53;5.13;;;;;;;26.66;49.88;96950.91;4970347;28;20031;-78
2021/09/09 09:50:21;;;;;;;7.05;5.68;;;;;;;26.80;50.02;96955.75;4937335;28;20069;-78
2021/09/09 09:52:46;;;;;;;7.30;6.28;;;;;;;26.67;50.51;96952.47;4954021;28;20043;-78
2021/09/09 09:55:12;;;;;;;7.30;5.50;;;;;;;26.86;49.61;96961.56;4953559;28;20042;-79
2021/09/09 09:57:54;;;;;;;6.35;5.68;;;;;;;26.59;50.12;96956.09;4954092;28;20109;-78
2021/09/09 10:00:21;;;;;;;6.05;5.45;;;;;;;26.74;51.14;96957.16;4953423;28;20039;-79
2021/09/09 10:02:47;;;;;;;8.25;5.57;;;;;;;26.89;49.94;96966.19;4953275;28;20038;-79
2021/09/09 10:05:13;;;;;;;8.05;5.65;;;;;;;26.78;50.22;96962.56;4969246;28;20039;-79
2021/09/09 10:07:38;;;;;;;6.55;5.90;;;;;;;26.84;50.72;96969.91;4969577;28;20034;-79
2021/09/09 10:10:04;;;;;;;6.50;5.90;;;;;;;26.83;50.42;96954.25;4953410;28;20043;-78
2021/09/09 10:12:30;;;;;;;9.52;5.78;;;;;;;26.88;49.69;96961.97;4969289;28;20046;-79
2021/09/09 10:14:59;;;;;;;7.57;6.40;;;;;;;26.61;50.51;96956.50;4953201;28;20267;-78
2021/09/09 10:17:25;;;;;;;7.30;5.53;;;;;;;26.55;50.66;96960.63;4969324;28;20113;-78
2021/09/09 10:19:51;;;;;;;7.43;6.00;;;;;;;26.78;49.81;96951.88;4953592;28;20042;-79
2021/09/09 10:22:18;;;;;;;7.53;6.00;;;;;;;27.23;49.43;96960.97;4952763;28;20393;-79
2021/09/09 10:24:46;;;;;;;6.78;6.00;;;;;;;27.62;51.33;96955.44;4970031;28;20031;-79
2021/09/09 10:27:20;;;;;;;7.53;6.32;;;;;;;27.94;49.90;96950.53;4952512;28;20023;-78
2021/09/09 10:30:04;;;;;;;7.07;6.38;;;;;;;27.89;48.20;96955.41;4970799;28;20398;-79
2021/09/09 10:32:30;;;;;;;6.60;5.90;;;;;;;28.40;47.49;96965.59;4952171;28;20481;-78
2021/09/09 10:35:14;;;;;;;7.15;6.43;;;;;;;28.22;46.84;96960.03;4984548;28;20286;-79
2021/09/09 10:37:40;;;;;;;6.43;5.88;;;;;;;28.15;46.56;96963.41;4968267;28;20042;-79
2021/09/09 10:40:06;;;;;;;6.38;5.82;;;;;;;28.02;47.50;96967.47;4969540;28;20114;-78
2021/09/09 10:42:38;;;;;;;6.30;5.70;;;;;;;27.70;48.59;96954.41;4936504;28;20033;-79
2021/09/09 10:45:05;;;;;;;6.35;5.82;;;;;;;28.06;48.25;96962.91;4937342;28;20034;-79
2021/09/09 10:47:30;;;;;;;7.45;5.35;;;;;;;28.16;48.04;96956.91;4949802;28;20031;-78
2021/09/09 10:50:04;;;;;;;6.22;5.63;;;;;;;27.77;48.48;96965.19;4934548;28;20105;-79
2021/09/09 10:52:35;;;;;;;5.65;5.03;;;;;;;27.80;47.53;96961.81;4952677;28;20039;-79
2021/09/09 10:55:05;;;;;;;7.45;5.72;;;;;;;27.59;48.47;96951.59;4952702;28;20259;-79
2021/09/09 10:57:30;;;;;;;6.50;5.50;;;;;;;27.49;49.55;96951.44;4971486;28;20026;-78
2021/09/09 10:59:56;;;;;;;6.47;5.80;;;;;;;27.55;50.10;96948.09;4971354;28;20102;-78
2021/09/09 11:02:21;;;;;;;5.75;5.25;;;;;;;27.55;49.09;96944.66;4948991;28;20053;-78
2021/09/09 11:04:49;;;;;;;5.95;5.10;;;;;;;27.52;49.56;96945.38;4970690;28;20760;-79
2021/09/09 11:07:27;;;;;;;5.60;5.10;;;;;;;27.32;49.27;96944.72;4989343;28;20132;-78
2021/09/09 11:10:07;;;;;;;6.05;5.47;;;;;;;27.29;49.39;96943.53;4963568;28;20026;-79
2021/09/09 11:12:40;;;;;;;5.30;4.82;;;;;;;27.24;49.80;96946.50;4928878;28;20054;-79
2021/09/09 11:15:13;;;;;;;6.10;5.05;;;;;;;27.08;50.53;96939.38;4951532;28;20038;-79
2021/09/09 11:17:39;;;;;;;6.80;5.53;;;;;;;27.26;50.30;96950.34;4953140;28;20042;-79
2021/09/09 11:20:07;;;;;;;4.75;4.35;;;;;;;27.33;49.20;96941.69;4934581;29;20043;-77
2021/09/09 11:22:33;;;;;;;5.25;4.28;;;;;;;27.80;48.75;96951.09;4918497;29;20529;-78
2021/09/09 11:24:59;;;;;;;4.93;4.43;;;;;;;28.11;47.58;96943.84;4933679;28;20035;-78
2021/09/09 11:27:30;;;;;;;5.97;4.63;;;;;;;28.35;47.63;96947.19;4966767;28;20467;-78
2021/09/09 11:29:58;;;;;;;4.57;4.00;;;;;;;28.38;46.73;96947.22;4942791;28;20466;-78